createdAt,value
2022-09-07T00:00:13.410Z,0.00
2022-09-07T00:01:12.551Z,0.00
2022-09-07T00:02:12.902Z,0.00
2022-09-07T00:03:13.538Z,0.00
2022-09-07T00:04:12.792Z,0.00
2022-09-07T00:05:12.456Z,0.00
2022-09-07T00:06:13.355Z,0.00
2022-09-07T00:07:13.252Z,0.00
2022-09-07T00:08:12.421Z,0.00
2022-09-07T00:09:13.345Z,0.00
2022-09-07T00:10:13.235Z,0.00
2022-09-07T00:11:12.384Z,0.00
2022-09-07T00:12:12.384Z,0.00
2022-09-07T00:13:12.459Z,0.00
2022-09-07T00:14:12.325Z,0.00
2022-09-07T00:15:13.342Z,0.00
2022-09-07T00:16:13.196Z,0.00
2022-09-07T00:17:12.307Z,0.00
2022-09-07T00:18:13.053Z,0.00
2022-09-07T00:19:13.128Z,0.00
2022-09-07T00:20:13.028Z,0.00
2022-09-07T00:21:12.260Z,0.00
2022-09-07T00:22:13.098Z,0.00
2022-09-07T00:23:13.078Z,0.00
2022-09-07T00:24:12.232Z,0.00
2022-09-07T00:25:12.316Z,0.00
2022-09-07T00:26:12.976Z,0.00
2022-09-07T00:27:13.132Z,0.00
2022-09-07T00:28:13.045Z,0.00
2022-09-07T00:29:12.141Z,0.00
2022-09-07T00:30:12.136Z,0.00
2022-09-07T00:31:13.056Z,0.00
2022-09-07T00:32:12.101Z,0.00
2022-09-07T00:33:13.097Z,0.00
2022-09-07T00:34:12.971Z,0.00
2022-09-07T00:35:12.068Z,0.00
2022-09-07T00:36:12.042Z,0.00
2022-09-07T00:37:12.940Z,0.00
2022-09-07T00:38:12.841Z,0.00
2022-09-07T00:39:12.745Z,0.00
2022-09-07T00:40:12.136Z,0.00
2022-09-07T00:41:12.065Z,0.00
2022-09-07T00:42:11.943Z,0.00
2022-09-07T00:43:12.875Z,0.00
2022-09-07T00:44:11.934Z,0.00
2022-09-07T00:45:13.875Z,0.00
2022-09-07T00:46:12.092Z,0.00
2022-09-07T00:47:11.888Z,0.00
2022-09-07T00:48:12.679Z,0.00
2022-09-07T00:49:12.809Z,0.00
2022-09-07T00:50:12.705Z,0.00
2022-09-07T00:51:13.835Z,0.00
2022-09-07T00:52:12.774Z,0.00
2022-09-07T00:53:12.753Z,0.00
2022-09-07T00:54:12.042Z,0.00
2022-09-07T00:55:11.747Z,0.00
2022-09-07T00:56:13.784Z,0.00
2022-09-07T00:57:11.746Z,0.00
2022-09-07T00:58:12.739Z,0.00
2022-09-07T00:59:12.618Z,0.00
2022-09-07T01:00:11.707Z,0.00
2022-09-07T01:01:11.699Z,0.00
2022-09-07T01:02:11.824Z,0.00
2022-09-07T01:03:11.974Z,0.00
2022-09-07T01:04:11.640Z,0.00
2022-09-07T01:05:11.629Z,0.00
2022-09-07T01:06:12.453Z,0.00
2022-09-07T01:07:11.678Z,0.00
2022-09-07T01:08:11.610Z,0.00
2022-09-07T01:09:11.593Z,0.00
2022-09-07T01:10:12.332Z,0.00
2022-09-07T01:11:11.557Z,0.00
2022-09-07T01:12:12.390Z,0.00
2022-09-07T01:13:11.620Z,0.00
2022-09-07T01:14:11.556Z,0.00
2022-09-07T01:15:12.401Z,0.00
2022-09-07T01:16:12.323Z,0.00
2022-09-07T01:17:11.902Z,0.00
2022-09-07T01:18:11.439Z,0.00
2022-09-07T01:19:12.235Z,0.00
2022-09-07T01:20:12.080Z,0.00
2022-09-07T01:21:12.294Z,0.00
2022-09-07T01:22:11.439Z,0.00
2022-09-07T01:23:12.372Z,0.00
2022-09-07T01:24:11.437Z,0.00
2022-09-07T01:25:11.365Z,0.00
2022-09-07T01:26:12.324Z,0.00
2022-09-07T01:27:11.336Z,0.00
2022-09-07T01:28:13.279Z,0.00
2022-09-07T01:29:12.299Z,0.00
2022-09-07T01:30:11.310Z,0.00
2022-09-07T01:31:12.136Z,0.00
2022-09-07T01:32:11.334Z,0.00
2022-09-07T01:33:12.166Z,0.00
2022-09-07T01:34:11.218Z,0.00
2022-09-07T01:35:11.976Z,0.00
2022-09-07T01:36:12.137Z,0.00
2022-09-07T01:37:12.040Z,0.00
2022-09-07T01:38:11.954Z,0.00
2022-09-07T01:39:13.097Z,0.00
2022-09-07T01:40:12.047Z,0.00
2022-09-07T01:41:11.139Z,0.00
2022-09-07T01:42:12.067Z,0.00
2022-09-07T01:43:11.978Z,0.00
2022-09-07T01:44:11.087Z,0.00
2022-09-07T01:45:12.048Z,0.00
2022-09-07T01:46:11.318Z,0.00
2022-09-07T01:47:11.176Z,0.00
2022-09-07T01:48:12.012Z,0.00
2022-09-07T01:49:11.253Z,0.00
2022-09-07T01:50:10.989Z,0.00
2022-09-07T01:51:11.994Z,0.00
2022-09-07T01:52:11.881Z,0.00
2022-09-07T01:53:11.784Z,0.00
2022-09-07T01:54:11.948Z,0.00
2022-09-07T01:55:11.085Z,0.00
2022-09-07T01:56:11.758Z,0.00
2022-09-07T01:57:11.913Z,0.00
2022-09-07T01:58:11.823Z,0.00
2022-09-07T01:59:10.911Z,0.00
2022-09-07T02:00:11.888Z,0.00
2022-09-07T02:01:11.783Z,0.00
2022-09-07T02:02:11.683Z,0.00
2022-09-07T02:03:11.627Z,0.00
2022-09-07T02:04:11.756Z,0.00
2022-09-07T02:05:11.654Z,0.00
2022-09-07T02:06:10.783Z,0.00
2022-09-07T02:07:11.727Z,0.00
2022-09-07T02:08:10.857Z,0.00
2022-09-07T02:09:11.524Z,0.00
2022-09-07T02:10:11.687Z,0.00
2022-09-07T02:11:11.604Z,0.00
2022-09-07T02:12:11.498Z,0.00
2022-09-07T02:13:11.657Z,0.00
2022-09-07T02:14:10.700Z,0.00
2022-09-07T02:15:10.708Z,0.00
2022-09-07T02:16:10.687Z,0.00
2022-09-07T02:17:12.598Z,0.00
2022-09-07T02:18:11.428Z,0.00
2022-09-07T02:19:19.486Z,0.00
2022-09-07T02:20:11.496Z,0.00
2022-09-07T02:21:11.408Z,0.00
2022-09-07T02:22:10.571Z,0.00
2022-09-07T02:23:10.571Z,0.00
2022-09-07T02:24:10.567Z,0.00
2022-09-07T02:25:11.530Z,0.00
2022-09-07T02:26:11.432Z,0.00
2022-09-07T02:27:11.337Z,0.00
2022-09-07T02:28:10.500Z,0.00
2022-09-07T02:29:11.401Z,0.00
2022-09-07T02:30:10.506Z,0.00
2022-09-07T02:31:10.508Z,0.00
2022-09-07T02:32:11.407Z,0.00
2022-09-07T02:33:10.418Z,0.00
2022-09-07T02:34:11.173Z,0.00
2022-09-07T02:35:10.427Z,0.00
2022-09-07T02:36:11.233Z,0.00
2022-09-07T02:37:11.143Z,0.00
2022-09-07T02:38:11.303Z,0.00
2022-09-07T02:39:10.313Z,0.00
2022-09-07T02:40:11.223Z,0.00
2022-09-07T02:41:11.279Z,0.00
2022-09-07T02:42:11.181Z,0.00
2022-09-07T02:43:10.295Z,0.00
2022-09-07T02:44:10.289Z,0.00
2022-09-07T02:45:10.276Z,0.00
2022-09-07T02:46:10.398Z,0.00
2022-09-07T02:47:10.229Z,0.00
2022-09-07T02:48:11.114Z,0.00
2022-09-07T02:49:10.197Z,0.00
2022-09-07T02:50:10.236Z,0.00
2022-09-07T02:51:11.078Z,0.00
2022-09-07T02:52:10.201Z,0.00
2022-09-07T02:53:10.136Z,0.00
2022-09-07T02:54:10.165Z,0.00
2022-09-07T02:55:10.948Z,0.00
2022-09-07T02:56:10.170Z,0.00
2022-09-07T02:57:10.112Z,0.00
2022-09-07T02:58:10.070Z,0.00
2022-09-07T02:59:10.821Z,0.00
2022-09-07T03:00:10.080Z,0.00
2022-09-07T03:01:10.938Z,0.00
2022-09-07T03:02:10.095Z,0.00
2022-09-07T03:03:10.967Z,0.00
2022-09-07T03:04:11.987Z,0.00
2022-09-07T03:05:09.962Z,0.00
2022-09-07T03:06:10.921Z,0.00
2022-09-07T03:07:10.820Z,0.00
2022-09-07T03:08:09.930Z,0.00
2022-09-07T03:09:10.883Z,0.00
2022-09-07T03:10:10.795Z,0.00
2022-09-07T03:11:09.926Z,0.00
2022-09-07T03:12:10.854Z,0.00
2022-09-07T03:13:09.847Z,0.00
2022-09-07T03:14:09.858Z,0.00
2022-09-07T03:15:09.846Z,0.00
2022-09-07T03:16:10.736Z,0.00
2022-09-07T03:17:10.632Z,0.00
2022-09-07T03:18:10.794Z,0.00
2022-09-07T03:19:10.186Z,0.00
2022-09-07T03:20:10.145Z,0.00
2022-09-07T03:21:10.113Z,0.00
2022-09-07T03:22:10.175Z,0.00
2022-09-07T03:23:09.704Z,0.00
2022-09-07T03:24:09.719Z,0.00
2022-09-07T03:25:09.753Z,0.00
2022-09-07T03:26:09.751Z,0.00
2022-09-07T03:27:09.638Z,0.00
2022-09-07T03:28:10.608Z,0.00
2022-09-07T03:29:09.669Z,0.00
2022-09-07T03:30:10.149Z,0.00
2022-09-07T03:31:10.654Z,0.00
2022-09-07T03:32:10.468Z,0.00
2022-09-07T03:33:10.376Z,0.00
2022-09-07T03:34:09.607Z,0.00
2022-09-07T03:35:09.567Z,0.00
2022-09-07T03:36:10.343Z,0.00
2022-09-07T03:37:10.520Z,0.00
2022-09-07T03:38:09.519Z,0.00
2022-09-07T03:39:10.309Z,0.00
2022-09-07T03:40:09.584Z,0.00
2022-09-07T03:41:10.641Z,0.00
2022-09-07T03:42:09.678Z,0.00
2022-09-07T03:43:10.452Z,0.00
2022-09-07T03:44:10.342Z,0.00
2022-09-07T03:45:09.481Z,0.00
2022-09-07T03:46:09.462Z,0.00
2022-09-07T03:47:09.440Z,0.00
2022-09-07T03:48:09.433Z,0.00
2022-09-07T03:49:09.363Z,0.00
2022-09-07T03:50:09.421Z,0.00
2022-09-07T03:51:10.184Z,0.00
2022-09-07T03:52:09.323Z,0.00
2022-09-07T03:53:09.562Z,0.00
2022-09-07T03:54:10.157Z,0.00
2022-09-07T03:55:10.063Z,0.00
2022-09-07T03:56:09.284Z,0.00
2022-09-07T03:57:09.292Z,0.00
2022-09-07T03:58:09.317Z,0.00
2022-09-07T03:59:10.186Z,0.00
2022-09-07T04:00:10.190Z,0.00
2022-09-07T04:01:09.274Z,4.00
2022-09-07T04:02:09.286Z,0.00
2022-09-07T04:03:10.057Z,0.00
2022-09-07T04:04:09.166Z,4.00
2022-09-07T04:05:09.177Z,4.00
2022-09-07T04:06:09.139Z,0.00
2022-09-07T04:07:09.928Z,4.00
2022-09-07T04:08:10.096Z,4.00
2022-09-07T04:09:09.146Z,4.00
2022-09-07T04:10:09.926Z,4.00
2022-09-07T04:11:10.084Z,4.00
2022-09-07T04:12:09.995Z,8.00
2022-09-07T04:13:09.892Z,4.00
2022-09-07T04:14:09.300Z,8.00
2022-09-07T04:15:09.945Z,8.00
2022-09-07T04:16:09.831Z,8.00
2022-09-07T04:17:10.086Z,12.00
2022-09-07T04:18:08.961Z,12.00
2022-09-07T04:19:09.034Z,16.00
2022-09-07T04:20:09.714Z,20.00
2022-09-07T04:21:08.949Z,16.00
2022-09-07T04:22:09.441Z,20.00
2022-09-07T04:23:08.908Z,28.00
2022-09-07T04:24:09.392Z,32.00
2022-09-07T04:25:09.734Z,36.00
2022-09-07T04:26:08.912Z,44.00
2022-09-07T04:27:09.811Z,48.00
2022-09-07T04:28:08.844Z,56.00
2022-09-07T04:29:09.004Z,64.00
2022-09-07T04:30:08.833Z,72.00
2022-09-07T04:31:09.023Z,84.00
2022-09-07T04:32:12.340Z,92.00
2022-09-07T04:33:09.803Z,104.00
2022-09-07T04:34:09.646Z,128.00
2022-09-07T04:35:09.229Z,148.00
2022-09-07T04:36:09.705Z,176.00
2022-09-07T04:37:09.625Z,196.00
2022-09-07T04:38:09.588Z,212.00
2022-09-07T04:39:08.725Z,212.00
2022-09-07T04:40:09.647Z,216.00
2022-09-07T04:41:09.337Z,220.00
2022-09-07T04:42:08.705Z,224.00
2022-09-07T04:43:08.718Z,236.00
2022-09-07T04:44:10.921Z,248.00
2022-09-07T04:45:09.368Z,276.00
2022-09-07T04:46:09.568Z,308.00
2022-09-07T04:47:09.426Z,348.00
2022-09-07T04:48:08.621Z,392.00
2022-09-07T04:49:08.584Z,440.00
2022-09-07T04:50:09.380Z,488.00
2022-09-07T04:51:09.292Z,520.00
2022-09-07T04:52:08.509Z,556.00
2022-09-07T04:53:09.357Z,580.00
2022-09-07T04:54:09.251Z,608.00
2022-09-07T04:55:09.424Z,640.00
2022-09-07T04:56:08.511Z,668.00
2022-09-07T04:57:09.250Z,700.00
2022-09-07T04:58:09.384Z,736.00
2022-09-07T04:59:09.301Z,760.00
2022-09-07T05:00:08.397Z,788.00
2022-09-07T05:01:09.405Z,820.00
2022-09-07T05:02:08.475Z,856.00
2022-09-07T05:03:08.385Z,888.00
2022-09-07T05:04:08.352Z,904.00
2022-09-07T05:05:08.340Z,920.00
2022-09-07T05:06:08.403Z,924.00
2022-09-07T05:07:08.302Z,920.00
2022-09-07T05:08:08.414Z,924.00
2022-09-07T05:09:08.271Z,944.00
2022-09-07T05:10:08.413Z,976.00
2022-09-07T05:11:08.236Z,1040.00
2022-09-07T05:12:08.293Z,1124.00
2022-09-07T05:13:08.293Z,1240.00
2022-09-07T05:14:08.622Z,1368.00
2022-09-07T05:15:08.386Z,1488.00
2022-09-07T05:16:08.981Z,1612.00
2022-09-07T05:17:08.345Z,1736.00
2022-09-07T05:18:08.997Z,1832.00
2022-09-07T05:19:08.166Z,1904.00
2022-09-07T05:20:08.334Z,1944.00
2022-09-07T05:21:08.158Z,1956.00
2022-09-07T05:22:08.107Z,1952.00
2022-09-07T05:23:08.632Z,1948.00
2022-09-07T05:24:08.960Z,1924.00
2022-09-07T05:25:08.387Z,1908.00
2022-09-07T05:26:08.340Z,1904.00
2022-09-07T05:27:08.305Z,1884.00
2022-09-07T05:28:07.983Z,1836.00
2022-09-07T05:31:17.520Z,1656.00
2022-09-07T05:32:08.922Z,1592.00
2022-09-07T05:33:08.011Z,1540.00
2022-09-07T05:35:08.922Z,1440.00
2022-09-07T05:36:07.875Z,1336.00
2022-09-07T05:37:07.938Z,1204.00
2022-09-07T05:38:08.319Z,1048.00
2022-09-07T05:39:08.430Z,880.00
2022-09-07T05:40:08.744Z,736.00
2022-09-07T05:41:07.945Z,656.00
2022-09-07T05:42:08.805Z,644.00
2022-09-07T05:43:08.645Z,692.00
2022-09-07T05:45:11.738Z,852.00
2022-09-07T05:46:07.963Z,944.00
2022-09-07T05:47:08.570Z,1040.00
2022-09-07T05:48:08.676Z,1144.00
2022-09-07T05:49:08.422Z,1236.00
2022-09-07T05:50:08.366Z,1304.00
2022-09-07T05:51:10.237Z,1352.00
2022-09-07T05:52:07.961Z,1388.00
2022-09-07T05:53:08.489Z,1408.00
2022-09-07T05:54:07.622Z,1444.00
2022-09-07T05:55:28.671Z,1508.00
2022-09-07T05:56:11.072Z,1584.00
2022-09-07T05:57:08.593Z,1644.00
2022-09-07T05:58:08.492Z,1688.00
2022-09-07T05:59:07.559Z,1728.00
2022-09-07T06:00:07.559Z,1768.00
2022-09-07T06:01:07.546Z,1804.00
2022-09-07T06:02:08.455Z,1864.00
2022-09-07T06:03:08.609Z,1892.00
2022-09-07T06:04:09.581Z,1928.00
2022-09-07T06:05:08.330Z,1956.00
2022-09-07T06:06:10.054Z,2000.00
2022-09-07T06:07:24.366Z,2028.00
2022-09-07T06:08:08.392Z,2072.00
2022-09-07T06:09:08.194Z,2128.00
2022-09-07T06:11:09.284Z,2192.00
2022-09-07T06:12:07.952Z,2212.00
2022-09-07T06:13:08.335Z,2232.00
2022-09-07T06:14:07.328Z,2252.00
2022-09-07T06:15:07.365Z,2284.00
2022-09-07T06:16:08.346Z,2328.00
2022-09-07T06:17:07.300Z,2392.00
2022-09-07T06:18:08.016Z,2492.00
2022-09-07T06:19:07.995Z,2620.00
2022-09-07T06:20:08.166Z,2756.00
2022-09-07T06:21:08.077Z,2920.00
2022-09-07T06:22:07.218Z,3112.00
2022-09-07T06:23:07.403Z,3316.00
2022-09-07T06:24:07.201Z,3512.00
2022-09-07T06:25:08.006Z,3712.00
2022-09-07T06:26:07.191Z,3912.00
2022-09-07T06:27:08.008Z,4088.00
2022-09-07T06:28:07.973Z,4252.00
2022-09-07T06:29:07.158Z,4392.00
2022-09-07T06:30:07.976Z,4500.00
2022-09-07T06:31:09.099Z,4556.00
2022-09-07T06:33:08.973Z,4608.00
2022-09-07T06:34:07.853Z,4616.00
2022-09-07T06:35:07.044Z,4640.00
2022-09-07T06:36:07.913Z,4700.00
2022-09-07T06:37:07.818Z,4820.00
2022-09-07T06:38:07.977Z,4976.00
2022-09-07T06:39:06.994Z,5180.00
2022-09-07T06:40:08.118Z,5400.00
2022-09-07T06:42:07.951Z,5948.00
2022-09-07T06:43:07.858Z,6240.00
2022-09-07T06:44:07.224Z,6508.00
2022-09-07T06:45:14.064Z,6720.00
2022-09-07T06:47:08.393Z,7072.00
2022-09-07T06:48:07.794Z,7252.00
2022-09-07T06:49:07.685Z,7404.00
2022-09-07T06:50:07.861Z,7404.00
2022-09-07T06:51:07.783Z,7344.00
2022-09-07T06:52:07.701Z,7200.00
2022-09-07T06:55:09.714Z,6512.00
2022-09-07T06:56:06.755Z,6328.00
2022-09-07T06:57:06.737Z,6184.00
2022-09-07T06:58:07.188Z,6060.00
2022-09-07T06:59:07.496Z,6000.00
2022-09-07T07:00:06.706Z,5980.00
2022-09-07T07:01:06.761Z,5964.00
2022-09-07T07:02:07.501Z,5964.00
2022-09-07T07:03:06.755Z,6000.00
2022-09-07T07:04:29.322Z,6040.00
2022-09-07T07:05:07.444Z,6072.00
2022-09-07T07:06:06.628Z,6132.00
2022-09-07T07:07:06.616Z,6236.00
2022-09-07T07:08:07.267Z,6376.00
2022-09-07T07:09:06.563Z,6540.00
2022-09-07T07:10:07.478Z,6652.00
2022-09-07T07:11:06.588Z,6700.00
2022-09-07T07:12:07.529Z,6640.00
2022-09-07T07:13:07.437Z,6604.00
2022-09-07T07:14:07.061Z,6540.00
2022-09-07T07:15:06.455Z,6560.00
2022-09-07T07:16:07.504Z,6568.00
2022-09-07T07:17:07.301Z,6592.00
2022-09-07T07:18:20.455Z,6556.00
2022-09-07T07:19:07.412Z,6492.00
2022-09-07T07:20:07.259Z,6408.00
2022-09-07T07:21:06.395Z,6344.00
2022-09-07T07:23:07.413Z,6516.00
2022-09-07T07:24:09.594Z,6644.00
2022-09-07T07:25:07.432Z,6816.00
2022-09-07T07:26:06.376Z,7028.00
2022-09-07T07:27:07.114Z,7292.00
2022-09-07T07:29:07.257Z,7704.00
2022-09-07T07:30:07.085Z,7824.00
2022-09-07T07:31:09.908Z,7888.00
2022-09-07T07:32:07.255Z,7888.00
2022-09-07T07:33:07.305Z,7780.00
2022-09-07T07:34:06.255Z,7580.00
2022-09-07T07:35:07.121Z,7288.00
2022-09-07T07:36:07.599Z,6920.00
2022-09-07T07:37:06.953Z,6540.00
2022-09-07T07:39:08.480Z,5852.00
2022-09-07T07:40:14.592Z,5596.00
2022-09-07T07:42:07.111Z,5380.00
2022-09-07T07:43:07.641Z,5320.00
2022-09-07T07:44:06.071Z,5240.00
2022-09-07T07:46:08.542Z,5044.00
2022-09-07T07:47:06.078Z,4964.00
2022-09-07T07:48:06.887Z,4824.00
2022-09-07T07:49:06.789Z,4672.00
2022-09-07T07:51:11.888Z,4388.00
2022-09-07T07:54:08.392Z,4464.00
2022-09-07T07:55:42.981Z,4608.00
2022-09-07T07:56:07.660Z,4740.00
2022-09-07T07:57:05.910Z,4888.00
2022-09-07T07:58:06.693Z,5016.00
2022-09-07T07:59:06.857Z,5104.00
2022-09-07T08:00:06.758Z,5148.00
2022-09-07T08:01:06.722Z,5160.00
2022-09-07T08:02:06.475Z,5112.00
2022-09-07T08:03:06.285Z,5048.00
2022-09-07T08:04:06.355Z,4964.00
2022-09-07T08:05:06.549Z,4932.00
2022-09-07T08:06:06.701Z,4884.00
2022-09-07T08:07:10.750Z,4884.00
2022-09-07T08:08:05.763Z,4920.00
2022-09-07T08:09:05.724Z,4888.00
2022-09-07T08:10:06.587Z,4852.00
2022-09-07T08:11:06.496Z,4784.00
2022-09-07T08:12:06.633Z,4692.00
2022-09-07T08:13:07.112Z,4584.00
2022-09-07T08:14:06.438Z,4524.00
2022-09-07T08:15:06.616Z,4572.00
2022-09-07T08:16:06.529Z,4604.00
2022-09-07T08:17:06.408Z,4712.00
2022-09-07T08:18:05.595Z,4868.00
2022-09-07T08:19:06.470Z,5092.00
2022-09-07T08:20:05.568Z,5352.00
2022-09-07T08:21:06.536Z,5672.00
2022-09-07T08:22:06.400Z,6168.00
2022-09-07T08:23:06.347Z,6828.00
2022-09-07T08:24:06.541Z,7468.00
2022-09-07T08:25:06.408Z,8028.00
2022-09-07T08:26:06.309Z,8236.00
2022-09-07T08:27:06.475Z,8380.00
2022-09-07T08:28:05.507Z,8432.00
2022-09-07T08:29:05.469Z,8668.00
2022-09-07T08:30:05.411Z,8924.00
2022-09-07T08:31:06.009Z,9392.00
2022-09-07T08:32:06.254Z,9996.00
2022-09-07T08:33:05.433Z,10736.00
2022-09-07T08:34:06.321Z,11404.00
2022-09-07T08:35:06.824Z,12004.00
2022-09-07T08:36:06.170Z,12788.00
2022-09-07T08:37:06.287Z,13408.00
2022-09-07T08:38:05.343Z,13724.00
2022-09-07T08:39:06.090Z,13564.00
2022-09-07T08:40:06.349Z,12984.00
2022-09-07T08:41:05.265Z,12128.00
2022-09-07T08:42:05.251Z,11436.00
2022-09-07T08:43:06.214Z,11088.00
2022-09-07T08:44:05.346Z,10920.00
2022-09-07T08:45:05.252Z,10656.00
2022-09-07T08:46:05.216Z,10272.00
2022-09-07T08:47:06.125Z,10304.00
2022-09-07T08:48:05.172Z,10684.00
2022-09-07T08:49:05.156Z,11248.00
2022-09-07T08:50:06.055Z,12140.00
2022-09-07T08:51:05.957Z,13300.00
2022-09-07T08:52:05.860Z,14556.00
2022-09-07T08:53:05.096Z,16136.00
2022-09-07T08:54:05.103Z,18592.00
2022-09-07T08:55:05.948Z,20832.00
2022-09-07T08:56:05.568Z,21632.00
2022-09-07T08:57:22.150Z,22112.00
2022-09-07T08:58:45.300Z,22464.00
2022-09-07T08:59:07.440Z,23552.00
2022-09-07T09:00:05.861Z,25088.00
2022-09-07T09:04:23.202Z,27200.00
2022-09-07T09:05:21.541Z,33568.00
2022-09-07T09:06:06.936Z,46016.00
2022-09-07T09:07:05.115Z,42208.00
2022-09-07T09:08:05.394Z,26912.00
2022-09-07T09:09:04.870Z,31328.00
2022-09-07T09:10:05.694Z,27360.00
2022-09-07T09:11:05.832Z,26368.00
2022-09-07T09:12:05.748Z,26784.00
2022-09-07T09:13:04.844Z,27168.00
2022-09-07T09:14:04.816Z,27840.00
2022-09-07T09:15:05.706Z,28384.00
2022-09-07T09:16:05.681Z,32192.00
2022-09-07T09:17:04.759Z,39968.00
2022-09-07T09:18:05.780Z,38816.00
2022-09-07T09:19:04.730Z,44256.00
2022-09-07T09:20:05.200Z,44704.00
2022-09-07T09:21:05.647Z,35296.00
2022-09-07T09:22:05.554Z,35552.00
2022-09-07T09:23:05.457Z,36768.00
2022-09-07T09:24:04.680Z,34336.00
2022-09-07T09:25:04.651Z,32960.00
2022-09-07T09:26:04.626Z,33088.00
2022-09-07T09:27:04.612Z,33312.00
2022-09-07T09:28:05.480Z,34112.00
2022-09-07T09:29:04.595Z,34176.00
2022-09-07T09:30:04.594Z,34592.00
2022-09-07T09:31:04.615Z,33472.00
2022-09-07T09:32:04.545Z,34048.00
2022-09-07T09:33:04.557Z,35840.00
2022-09-07T09:34:05.417Z,36288.00
2022-09-07T09:35:04.555Z,35296.00
2022-09-07T09:36:04.496Z,34880.00
2022-09-07T09:37:04.484Z,34496.00
2022-09-07T09:38:05.286Z,33856.00
2022-09-07T09:39:04.472Z,33952.00
2022-09-07T09:40:04.495Z,32576.00
2022-09-07T09:41:04.429Z,31936.00
2022-09-07T09:42:04.407Z,31968.00
2022-09-07T09:43:04.482Z,30752.00
2022-09-07T09:44:04.426Z,30400.00
2022-09-07T09:45:04.375Z,29824.00
2022-09-07T09:46:12.689Z,29280.00
2022-09-07T09:48:06.169Z,29504.00
2022-09-07T09:49:05.252Z,28448.00
2022-09-07T09:50:05.160Z,28640.00
2022-09-07T09:53:05.287Z,30016.00
2022-09-07T09:54:05.047Z,30080.00
2022-09-07T09:55:33.341Z,29312.00
2022-09-07T09:56:05.369Z,29152.00
2022-09-07T09:57:04.997Z,28416.00
2022-09-07T09:59:56.742Z,28992.00
2022-09-07T10:00:10.516Z,29856.00
2022-09-07T10:01:21.746Z,30560.00
2022-09-07T10:04:11.717Z,33152.00
2022-09-07T10:05:05.088Z,33664.00
2022-09-07T10:06:04.087Z,33312.00
2022-09-07T10:07:04.099Z,33440.00
2022-09-07T10:08:04.968Z,32864.00
2022-09-07T10:09:04.062Z,32704.00
2022-09-07T10:10:04.021Z,33280.00
2022-09-07T10:11:04.372Z,33888.00
2022-09-07T10:12:06.130Z,33888.00
2022-09-07T10:13:05.421Z,33184.00
2022-09-07T10:14:03.993Z,32256.00
2022-09-07T10:15:03.972Z,31392.00
2022-09-07T10:16:04.068Z,30656.00
2022-09-07T10:17:04.014Z,30080.00
2022-09-07T10:18:03.920Z,29824.00
2022-09-07T10:19:03.892Z,28800.00
2022-09-07T10:20:04.868Z,27168.00
2022-09-07T10:21:04.742Z,24768.00
2022-09-07T10:22:04.769Z,22848.00
2022-09-07T10:23:03.898Z,21632.00
2022-09-07T10:24:04.271Z,21216.00
2022-09-07T10:25:03.894Z,20896.00
2022-09-07T10:26:03.805Z,21216.00
2022-09-07T10:27:04.678Z,21248.00
2022-09-07T10:28:03.830Z,21408.00
2022-09-07T10:29:07.153Z,21536.00
2022-09-07T10:30:06.691Z,21792.00
2022-09-07T10:31:03.972Z,21984.00
2022-09-07T10:32:03.758Z,22656.00
2022-09-07T10:33:04.626Z,24256.00
2022-09-07T10:35:05.510Z,38784.00
2022-09-07T10:36:03.651Z,44448.00
2022-09-07T10:37:03.698Z,49312.00
2022-09-07T10:38:03.705Z,51136.00
2022-09-07T10:39:03.769Z,46752.00
2022-09-07T10:40:04.586Z,50400.00
2022-09-07T10:41:04.365Z,50080.00
2022-09-07T10:42:03.657Z,51264.00
2022-09-07T10:44:05.350Z,50496.00
2022-09-07T10:45:03.691Z,51264.00
2022-09-07T10:46:03.567Z,51040.00
2022-09-07T10:47:05.033Z,54048.00
2022-09-07T10:48:03.513Z,49600.00
2022-09-07T10:49:03.516Z,49984.00
2022-09-07T10:51:12.695Z,45472.00
2022-09-07T10:52:04.466Z,51616.00
2022-09-07T10:53:23.503Z,53728.00
2022-09-07T10:55:04.444Z,56032.00
2022-09-07T10:56:03.473Z,50464.00
2022-09-07T10:57:03.428Z,51968.00
2022-09-07T10:58:03.368Z,49280.00
2022-09-07T10:59:04.077Z,52288.00
2022-09-07T11:00:07.969Z,56480.00
2022-09-07T11:01:04.309Z,58176.00
2022-09-07T11:02:03.358Z,56640.00
2022-09-07T11:04:04.439Z,57280.00
2022-09-07T11:05:04.108Z,58176.00
2022-09-07T11:06:03.297Z,59072.00
2022-09-07T11:07:04.172Z,55744.00
2022-09-07T11:08:03.266Z,60704.00
2022-09-07T11:09:19.655Z,61152.00
2022-09-07T11:10:05.214Z,63968.00
2022-09-07T11:11:04.034Z,64064.00
2022-09-07T11:12:04.049Z,65408.00
2022-09-07T11:13:10.092Z,64992.00
2022-09-07T11:14:13.145Z,67552.00
2022-09-07T11:15:04.163Z,61536.00
2022-09-07T11:16:04.117Z,69984.00
2022-09-07T11:17:04.022Z,65504.00
2022-09-07T11:18:03.877Z,68480.00
2022-09-07T11:20:05.529Z,67808.00
2022-09-07T11:21:03.068Z,65984.00
2022-09-07T11:22:03.090Z,63776.00
2022-09-07T11:23:03.913Z,60704.00
2022-09-07T11:24:03.021Z,62208.00
2022-09-07T11:26:04.021Z,68192.00
2022-09-07T11:27:03.789Z,69888.00
2022-09-07T11:28:03.943Z,73408.00
2022-09-07T11:30:03.974Z,72032.00
2022-09-07T11:31:03.968Z,75488.00
2022-09-07T11:32:02.956Z,72288.00
2022-09-07T11:33:03.733Z,73856.00
2022-09-07T11:35:03.897Z,72224.00
2022-09-07T11:36:03.346Z,64288.00
2022-09-07T11:37:03.289Z,64224.00
2022-09-07T11:38:03.759Z,66464.00
2022-09-07T11:39:03.655Z,69952.00
2022-09-07T11:40:02.864Z,66144.00
2022-09-07T11:41:03.718Z,67456.00
2022-09-07T11:42:42.864Z,77408.00
2022-09-07T11:43:03.866Z,69024.00
2022-09-07T11:44:02.790Z,68704.00
2022-09-07T11:45:03.345Z,64096.00
2022-09-07T11:46:02.827Z,58432.00
2022-09-07T11:47:03.387Z,56960.00
2022-09-07T11:48:03.561Z,54752.00
2022-09-07T11:49:04.593Z,52704.00
2022-09-07T11:50:03.196Z,51584.00
2022-09-07T11:51:02.672Z,52224.00
2022-09-07T11:52:06.411Z,50816.00
2022-09-07T11:53:03.595Z,50624.00
2022-09-07T11:54:02.634Z,49664.00
2022-09-07T11:55:02.682Z,48384.00
2022-09-07T11:56:03.598Z,44864.00
2022-09-07T11:57:03.465Z,48320.00
2022-09-07T11:58:03.371Z,46912.00
2022-09-07T11:59:02.618Z,48800.00
2022-09-07T12:00:03.427Z,50656.00
2022-09-07T12:01:03.338Z,54720.00
2022-09-07T12:02:03.500Z,57696.00
2022-09-07T12:03:03.385Z,56864.00
2022-09-07T12:04:02.785Z,57088.00
2022-09-07T12:05:03.297Z,59296.00
2022-09-07T12:06:03.363Z,57088.00
2022-09-07T12:07:03.270Z,52384.00
2022-09-07T12:08:02.492Z,53440.00
2022-09-07T12:09:03.332Z,54080.00
2022-09-07T12:10:02.421Z,50816.00
2022-09-07T12:11:02.432Z,49504.00
2022-09-07T12:12:02.416Z,47392.00
2022-09-07T12:13:02.403Z,52352.00
2022-09-07T12:14:02.379Z,52864.00
2022-09-07T12:15:02.463Z,55584.00
2022-09-07T12:16:03.233Z,52032.00
2022-09-07T12:17:02.337Z,53632.00
2022-09-07T12:18:03.255Z,58016.00
2022-09-07T12:19:02.446Z,62176.00
2022-09-07T12:20:02.298Z,62880.00
2022-09-07T12:21:03.726Z,58080.00
2022-09-07T12:22:03.108Z,56960.00
2022-09-07T12:23:04.826Z,60512.00
2022-09-07T12:24:03.181Z,60672.00
2022-09-07T12:25:03.082Z,73760.00
2022-09-07T12:26:02.237Z,65280.00
2022-09-07T12:27:02.398Z,67808.00
2022-09-07T12:28:03.051Z,63232.00
2022-09-07T12:29:02.951Z,58240.00
2022-09-07T12:30:02.194Z,58112.00
2022-09-07T12:31:03.040Z,63104.00
2022-09-07T12:33:03.152Z,67488.00
2022-09-07T12:34:02.113Z,68000.00
2022-09-07T12:35:02.127Z,67520.00
2022-09-07T12:36:02.165Z,67904.00
2022-09-07T12:37:02.055Z,68896.00
2022-09-07T12:38:02.319Z,74208.00
2022-09-07T12:39:02.316Z,69888.00
2022-09-07T12:40:03.049Z,72608.00
2022-09-07T12:41:02.056Z,68480.00
2022-09-07T12:43:09.948Z,64864.00
2022-09-07T12:44:02.977Z,62176.00
2022-09-07T12:45:02.964Z,62688.00
2022-09-07T12:46:02.952Z,67392.00
2022-09-07T12:47:02.758Z,63456.00
2022-09-07T12:48:01.950Z,59648.00
2022-09-07T12:49:02.822Z,69408.00
2022-09-07T12:50:02.752Z,63552.00
2022-09-07T12:51:02.589Z,64704.00
2022-09-07T12:52:09.038Z,68288.00
2022-09-07T12:53:03.790Z,67168.00
2022-09-07T12:54:01.874Z,68192.00
2022-09-07T12:55:25.818Z,68992.00
2022-09-07T12:56:18.922Z,60864.00
2022-09-07T12:58:02.799Z,47968.00
2022-09-07T12:59:03.235Z,38688.00
2022-09-07T13:00:01.820Z,78592.00
2022-09-07T13:01:05.355Z,64448.00
2022-09-07T13:02:02.677Z,54496.00